Airfield :
LOGIN :

Register | Disclaimer

   EN    FR    IT 

 










Legend :    VFR   Marginal VFR   IFR   Intensive IFR   Very Intensive IFR
Visi :
Ceiling :
>= 8 km
>= 3000ft
5 to 8 km
1000 to 3000 ft
1500m to 5 km
500 to 1000 ft
800 to 1500m
200 to 500 ft
< 800m
< 200 ft
Symbols :   Thunderstorms  Fog  Heavy snow  Heavy precipitations  Wind > 20 kt
SIGMETs :     Misc.  Thunderstorms  Icing  Turbulence  Mountain Waves  Volcanic Ashes







- Airport Elevation : 939 ft


LKKB - Kbely Air Base

CURRENT METAR :
  • 200300Z 25009KT 230V360 9999 BKN030 03/01 Q1014

EXPIRED METARs :
  • 200200Z 29005KT 250V360 9999 SCT014 OVC027 02/02 Q1014
  • 200100Z 31007KT 240V340 9999 -RA SCT014 OVC022 04/02 Q1013

TAF TAF LKKB
Valid from the 20 at 00:00 until the 21 at 00:00 UTC


192300Z 2000/2100 27014G25KT 9999 BKN030
TEMPO 2000/2010 8000 SHRA BKN020 OVC030
PROB30
TEMPO 2000/2006 3000 SHRASN BKN010 OVC015
TEMPO 2012/2021 8000 SHRA BKN020
TEMPO 2020/2100 6000 RA BKN010 OVC020
BECMG 2020/2022 24010KT
No reported NOTAMs for that airfield.



MET'MAP, your aeronautical weather chart ! - Copyright ORBIFLY December 2007 - Disclaimer

ORBIFLY MET'MAP TEAM :

Programming & Development : Alexandra Zaïnal
Concept & Development : Baudouin d'Aumeries
Co-Development & Prog : Marc-Olivier Méhu
Technical & hardware support : Manuel Goepfert

Contact : metmap@orbifly.com




SOURCES & CREDITS :

   NOAA